Silica, Minnesota
Current Conditions -  °F | °C
As of 5:53 PM on Wednesday 22 Oct 2014 (Local Time) from KHIB Reporting Station
Clear Clear  
Wind Chill: 56°   Ceiling: Unl
Heat Index: 56°   Visibility: 10mi
Dew Point: 38°   Wind: 9mph
Humidity: 51%   Direction: 160°SSE
Pressure: 30"   Gusts: 22mph
Location:  47.4158°N, 93.0053°W
Report Text: KHIB 222253Z AUTO 16008G19KT 10SM CLR 13/03 A3000 RMK AO2 SLP168 T01330033
Loading
Personal Weather Stations






























Interactive Weather Map
Tropical Storm Tracking
New forecast layout! Learn more

10-Day Weather Forecast

Advertisements
Track Severe Weather on mobile